sensor_id;sensor_type;location;lat;lon;timestamp;temperature;humidity
1888;DHT22;944;51.574;6.980;2022-07-23T00:21:10;15.60;99.90
1888;DHT22;944;51.574;6.980;2022-07-23T00:23:38;15.60;99.90
1888;DHT22;944;51.574;6.980;2022-07-23T00:26:08;15.60;99.90
1888;DHT22;944;51.574;6.980;2022-07-23T00:28:37;15.60;99.90
1888;DHT22;944;51.574;6.980;2022-07-23T00:31:06;15.70;99.90
1888;DHT22;944;51.574;6.980;2022-07-23T00:33:36;15.70;99.90
1888;DHT22;944;51.574;6.980;2022-07-23T00:36:13;15.70;99.90
1888;DHT22;944;51.574;6.980;2022-07-23T00:42:25;15.80;99.90
1888;DHT22;944;51.574;6.980;2022-07-23T00:49:02;15.70;99.90
1888;DHT22;944;51.574;6.980;2022-07-23T00:51:33;15.70;99.90
1888;DHT22;944;51.574;6.980;2022-07-23T00:54:05;15.70;99.90
1888;DHT22;944;51.574;6.980;2022-07-23T00:56:44;15.70;99.90
1888;DHT22;944;51.574;6.980;2022-07-23T01:05:49;15.80;99.90
1888;DHT22;944;51.574;6.980;2022-07-23T01:08:20;15.70;99.90
1888;DHT22;944;51.574;6.980;2022-07-23T01:10:50;15.70;99.90
1888;DHT22;944;51.574;6.980;2022-07-23T01:13:29;15.90;99.90
1888;DHT22;944;51.574;6.980;2022-07-23T01:16:04;15.80;99.90
1888;DHT22;944;51.574;6.980;2022-07-23T01:18:51;15.80;99.90
1888;DHT22;944;51.574;6.980;2022-07-23T01:21:47;15.80;99.90
1888;DHT22;944;51.574;6.980;2022-07-23T01:28:49;15.60;99.90
1888;DHT22;944;51.574;6.980;2022-07-23T02:59:05;14.90;99.90
1888;DHT22;944;51.574;6.980;2022-07-23T03:02:06;15.00;99.90
1888;DHT22;944;51.574;6.980;2022-07-23T03:05:15;15.10;99.90
1888;DHT22;944;51.574;6.980;2022-07-23T03:07:49;14.90;99.90
1888;DHT22;944;51.574;6.980;2022-07-23T03:10:36;14.90;99.90
1888;DHT22;944;51.574;6.980;2022-07-23T03:17:00;14.90;99.90
1888;DHT22;944;51.574;6.980;2022-07-23T03:19:59;14.80;99.90
1888;DHT22;944;51.574;6.980;2022-07-23T03:23:11;14.70;99.90
1888;DHT22;944;51.574;6.980;2022-07-23T03:26:02;14.70;99.90
1888;DHT22;944;51.574;6.980;2022-07-23T03:29:35;14.70;99.90
1888;DHT22;944;51.574;6.980;2022-07-23T03:32:19;14.60;99.90
1888;DHT22;944;51.574;6.980;2022-07-23T04:11:27;14.40;99.90
1888;DHT22;944;51.574;6.980;2022-07-23T04:14:05;14.50;99.90
1888;DHT22;944;51.574;6.980;2022-07-23T04:16:53;14.30;99.90
1888;DHT22;944;51.574;6.980;2022-07-23T04:19:32;14.50;99.90
1888;DHT22;944;51.574;6.980;2022-07-23T04:22:12;14.30;99.90
1888;DHT22;944;51.574;6.980;2022-07-23T04:24:47;14.20;99.90
1888;DHT22;944;51.574;6.980;2022-07-23T04:27:24;14.30;99.90
1888;DHT22;944;51.574;6.980;2022-07-23T04:29:53;14.40;99.90
1888;DHT22;944;51.574;6.980;2022-07-23T04:32:54;14.30;99.90
1888;DHT22;944;51.574;6.980;2022-07-23T04:35:46;14.40;99.90
1888;DHT22;944;51.574;6.980;2022-07-23T04:38:21;14.40;99.90
1888;DHT22;944;51.574;6.980;2022-07-23T04:41:10;14.40;99.90
1888;DHT22;944;51.574;6.980;2022-07-23T04:43:52;14.50;99.90
1888;DHT22;944;51.574;6.980;2022-07-23T04:46:33;14.50;99.90
1888;DHT22;944;51.574;6.980;2022-07-23T04:49:13;14.50;99.90
1888;DHT22;944;51.574;6.980;2022-07-23T04:52:00;14.50;99.90
1888;DHT22;944;51.574;6.980;2022-07-23T04:54:38;14.60;99.90
1888;DHT22;944;51.574;6.980;2022-07-23T04:57:37;14.50;99.90
1888;DHT22;944;51.574;6.980;2022-07-23T05:00:30;14.50;99.90
1888;DHT22;944;51.574;6.980;2022-07-23T05:04:02;14.70;99.90
1888;DHT22;944;51.574;6.980;2022-07-23T05:07:20;14.80;99.90
1888;DHT22;944;51.574;6.980;2022-07-23T05:09:57;14.90;99.90
1888;DHT22;944;51.574;6.980;2022-07-23T05:12:33;14.90;99.90
1888;DHT22;944;51.574;6.980;2022-07-23T05:20:21;15.00;99.90
1888;DHT22;944;51.574;6.980;2022-07-23T05:23:23;15.10;99.90
1888;DHT22;944;51.574;6.980;2022-07-23T05:29:44;15.30;99.90
1888;DHT22;944;51.574;6.980;2022-07-23T05:32:12;15.30;99.90
1888;DHT22;944;51.574;6.980;2022-07-23T05:34:41;15.20;99.90
1888;DHT22;944;51.574;6.980;2022-07-23T05:37:49;15.40;99.90
1888;DHT22;944;51.574;6.980;2022-07-23T05:40:20;15.60;99.90
1888;DHT22;944;51.574;6.980;2022-07-23T05:42:52;15.50;99.90
1888;DHT22;944;51.574;6.980;2022-07-23T05:45:21;15.60;99.90
1888;DHT22;944;51.574;6.980;2022-07-23T05:47:49;15.60;99.90
1888;DHT22;944;51.574;6.980;2022-07-23T05:50:17;15.70;99.90
1888;DHT22;944;51.574;6.980;2022-07-23T05:52:49;16.10;99.90
1888;DHT22;944;51.574;6.980;2022-07-23T05:55:19;16.10;99.90
1888;DHT22;944;51.574;6.980;2022-07-23T05:58:01;16.20;99.90
1888;DHT22;944;51.574;6.980;2022-07-23T06:00:29;16.50;99.90
1888;DHT22;944;51.574;6.980;2022-07-23T06:02:58;16.80;99.90
1888;DHT22;944;51.574;6.980;2022-07-23T06:05:25;17.30;99.90
1888;DHT22;944;51.574;6.980;2022-07-23T06:07:54;17.70;99.90
1888;DHT22;944;51.574;6.980;2022-07-23T07:30:32;20.70;99.90
1888;DHT22;944;51.574;6.980;2022-07-23T07:33:04;20.80;99.90
1888;DHT22;944;51.574;6.980;2022-07-23T08:56:11;22.80;99.90
1888;DHT22;944;51.574;6.980;2022-07-23T09:09:13;23.00;99.90
1888;DHT22;944;51.574;6.980;2022-07-23T17:43:15;24.40;99.90
1888;DHT22;944;51.574;6.980;2022-07-23T18:28:28;23.60;99.90
1888;DHT22;944;51.574;6.980;2022-07-23T18:30:56;23.50;99.90
1888;DHT22;944;51.574;6.980;2022-07-23T18:33:23;23.50;99.90
1888;DHT22;944;51.574;6.980;2022-07-23T18:35:51;23.50;99.90
1888;DHT22;944;51.574;6.980;2022-07-23T18:38:18;23.50;99.90
1888;DHT22;944;51.574;6.980;2022-07-23T18:40:49;23.40;99.90
1888;DHT22;944;51.574;6.980;2022-07-23T18:43:16;23.40;99.90
1888;DHT22;944;51.574;6.980;2022-07-23T18:45:48;23.20;99.90
1888;DHT22;944;51.574;6.980;2022-07-23T18:48:16;23.40;99.90
1888;DHT22;944;51.574;6.980;2022-07-23T18:50:50;23.20;99.90
1888;DHT22;944;51.574;6.980;2022-07-23T18:53:21;23.10;99.90
1888;DHT22;944;51.574;6.980;2022-07-23T18:55:51;23.10;99.90
1888;DHT22;944;51.574;6.980;2022-07-23T18:58:21;22.90;99.90
1888;DHT22;944;51.574;6.980;2022-07-23T19:00:50;22.90;99.90
1888;DHT22;944;51.574;6.980;2022-07-23T19:03:18;22.50;99.90
1888;DHT22;944;51.574;6.980;2022-07-23T19:05:46;22.80;99.90
1888;DHT22;944;51.574;6.980;2022-07-23T19:08:17;22.70;99.90
1888;DHT22;944;51.574;6.980;2022-07-23T19:10:46;22.70;99.90
1888;DHT22;944;51.574;6.980;2022-07-23T19:13:21;22.60;99.90
1888;DHT22;944;51.574;6.980;2022-07-23T19:16:31;22.50;99.90
1888;DHT22;944;51.574;6.980;2022-07-23T19:23:27;22.30;99.90
1888;DHT22;944;51.574;6.980;2022-07-23T19:26:25;22.10;99.90
1888;DHT22;944;51.574;6.980;2022-07-23T19:29:34;22.00;99.90
1888;DHT22;944;51.574;6.980;2022-07-23T19:32:31;22.00;99.90
1888;DHT22;944;51.574;6.980;2022-07-23T19:35:21;22.10;99.90
1888;DHT22;944;51.574;6.980;2022-07-23T19:41:53;21.70;99.90
1888;DHT22;944;51.574;6.980;2022-07-23T19:45:57;21.60;99.90
1888;DHT22;944;51.574;6.980;2022-07-23T20:07:43;20.90;99.90
1888;DHT22;944;51.574;6.980;2022-07-23T20:11:18;21.00;99.90
1888;DHT22;944;51.574;6.980;2022-07-23T20:29:30;20.50;99.90
1888;DHT22;944;51.574;6.980;2022-07-23T20:32:33;20.40;99.90
1888;DHT22;944;51.574;6.980;2022-07-23T20:35:35;20.30;99.90
1888;DHT22;944;51.574;6.980;2022-07-23T20:38:52;20.40;99.90
1888;DHT22;944;51.574;6.980;2022-07-23T20:41:52;20.40;99.90
1888;DHT22;944;51.574;6.980;2022-07-23T20:44:48;20.30;99.90
1888;DHT22;944;51.574;6.980;2022-07-23T20:48:15;20.20;99.90
1888;DHT22;944;51.574;6.980;2022-07-23T20:54:59;20.00;99.90
1888;DHT22;944;51.574;6.980;2022-07-23T20:58:32;20.00;99.90
1888;DHT22;944;51.574;6.980;2022-07-23T21:01:41;20.20;99.90
1888;DHT22;944;51.574;6.980;2022-07-23T21:04:37;20.10;99.90
1888;DHT22;944;51.574;6.980;2022-07-23T21:07:07;20.30;99.90
1888;DHT22;944;51.574;6.980;2022-07-23T21:09:49;20.10;99.90
1888;DHT22;944;51.574;6.980;2022-07-23T21:12:44;20.20;99.90
1888;DHT22;944;51.574;6.980;2022-07-23T21:15:25;20.50;99.90
1888;DHT22;944;51.574;6.980;2022-07-23T21:17:55;20.30;99.90
1888;DHT22;944;51.574;6.980;2022-07-23T21:20:23;20.40;99.90
1888;DHT22;944;51.574;6.980;2022-07-23T21:22:52;20.30;99.90
1888;DHT22;944;51.574;6.980;2022-07-23T21:40:39;20.30;99.90
1888;DHT22;944;51.574;6.980;2022-07-23T21:43:17;20.30;99.90
1888;DHT22;944;51.574;6.980;2022-07-23T21:46:15;20.20;99.90
1888;DHT22;944;51.574;6.980;2022-07-23T21:49:20;20.20;99.90
1888;DHT22;944;51.574;6.980;2022-07-23T21:52:27;20.20;99.90
1888;DHT22;944;51.574;6.980;2022-07-23T21:55:29;20.10;99.90
1888;DHT22;944;51.574;6.980;2022-07-23T22:09:38;20.00;99.90
1888;DHT22;944;51.574;6.980;2022-07-23T22:30:15;19.60;99.90
1888;DHT22;944;51.574;6.980;2022-07-23T22:33:04;19.80;99.90
1888;DHT22;944;51.574;6.980;2022-07-23T22:35:42;19.70;99.90
1888;DHT22;944;51.574;6.980;2022-07-23T22:38:37;19.70;99.90
1888;DHT22;944;51.574;6.980;2022-07-23T22:41:13;19.60;99.90
1888;DHT22;944;51.574;6.980;2022-07-23T22:43:51;19.60;99.90
1888;DHT22;944;51.574;6.980;2022-07-23T22:46:22;19.50;99.90
1888;DHT22;944;51.574;6.980;2022-07-23T22:48:49;19.50;99.90
1888;DHT22;944;51.574;6.980;2022-07-23T22:51:20;19.70;99.90
1888;DHT22;944;51.574;6.980;2022-07-23T22:54:00;19.50;99.90
1888;DHT22;944;51.574;6.980;2022-07-23T22:56:50;19.50;99.90
1888;DHT22;944;51.574;6.980;2022-07-23T23:00:10;19.40;99.90
1888;DHT22;944;51.574;6.980;2022-07-23T23:03:27;19.30;99.90
1888;DHT22;944;51.574;6.980;2022-07-23T23:09:54;19.40;99.90
1888;DHT22;944;51.574;6.980;2022-07-23T23:12:49;19.30;99.90
1888;DHT22;944;51.574;6.980;2022-07-23T23:23:03;19.20;99.90
1888;DHT22;944;51.574;6.980;2022-07-23T23:26:14;19.20;99.90
1888;DHT22;944;51.574;6.980;2022-07-23T23:29:02;19.00;99.90
1888;DHT22;944;51.574;6.980;2022-07-23T23:32:11;19.20;99.90
1888;DHT22;944;51.574;6.980;2022-07-23T23:35:30;19.10;99.90
1888;DHT22;944;51.574;6.980;2022-07-23T23:38:43;19.10;99.90
1888;DHT22;944;51.574;6.980;2022-07-23T23:44:46;19.00;99.90
1888;DHT22;944;51.574;6.980;2022-07-23T23:47:44;19.00;99.90
